Time;durP1;ratioP1;P1;durP2;ratioP2;P2;SDS_P1;SDS_P2;PMS_P1;PMS_P2;Temp;Humidity;BMP_temperature;BMP_pressure;BME280_temperature;BME280_humidity;BME280_pressure;Samples;Min_cycle;Max_cycle;Signal;HPM_P1;HPM_P2
2021/06/04 09:30:48;;;;;;;2.20;1.70;;;;;;;;;;5166278;27;20522;-66
2021/06/04 09:33:20;;;;;;;2.27;1.60;;;;;;;;;;5148003;27;20211;-65
2021/06/04 09:35:57;;;;;;;2.13;1.40;;;;;;;;;;5156994;27;20216;-65
2021/06/04 09:38:27;;;;;;;4.17;2.40;;;;;;;;;;5156693;27;20214;-65
2021/06/04 09:40:55;;;;;;;2.13;1.40;;;;;;;;;;5156824;27;20206;-64
2021/06/04 09:43:29;;;;;;;2.00;1.70;;;;;;;;;;5156876;27;20280;-65
2021/06/04 09:46:00;;;;;;;2.23;1.70;;;;;;;;;;5157179;27;20208;-66
2021/06/04 09:48:33;;;;;;;2.00;1.63;;;;;;;;;;5156516;27;20282;-65
2021/06/04 09:51:05;;;;;;;1.67;1.47;;;;;;;;;;5156870;27;20208;-65
2021/06/04 09:53:33;;;;;;;1.67;1.57;;;;;;;;;;5152325;27;20246;-66
2021/06/04 09:56:16;;;;;;;2.47;1.60;;;;;;;;;;5146811;27;20279;-66
2021/06/04 09:58:51;;;;;;;1.47;1.37;;;;;;;;;;5148643;27;20210;-66
2021/06/04 10:01:21;;;;;;;2.17;1.60;;;;;;;;;;5147227;27;20212;-66
2021/06/04 10:03:53;;;;;;;2.87;1.50;;;;;;;;;;5147608;27;20203;-66
2021/06/04 10:06:26;;;;;;;3.03;1.47;;;;;;;;;;5148931;27;20539;-66
2021/06/04 10:08:55;;;;;;;3.27;1.47;;;;;;;;;;5149491;27;20773;-66
2021/06/04 10:11:24;;;;;;;3.53;1.80;;;;;;;;;;5147478;27;20762;-66
2021/06/04 10:13:55;;;;;;;3.30;1.73;;;;;;;;;;5146619;27;20208;-66
2021/06/04 10:16:39;;;;;;;1.50;1.40;;;;;;;;;;5150491;27;20256;-66
2021/06/04 10:19:17;;;;;;;1.43;1.33;;;;;;;;;;5146361;27;20193;-65
2021/06/04 10:21:45;;;;;;;2.13;1.80;;;;;;;;;;5150280;27;20227;-66
2021/06/04 10:24:22;;;;;;;1.70;1.30;;;;;;;;;;5149031;27;20678;-66
2021/06/04 10:26:53;;;;;;;2.93;1.67;;;;;;;;;;5146542;27;20622;-66
2021/06/04 10:29:21;;;;;;;2.57;1.47;;;;;;;;;;5146796;27;20272;-66
2021/06/04 10:31:53;;;;;;;1.87;1.47;;;;;;;;;;5146676;27;20223;-66
2021/06/04 10:34:24;;;;;;;1.87;1.60;;;;;;;;;;5147341;27;20202;-66
2021/06/04 10:36:53;;;;;;;1.60;1.40;;;;;;;;;;5146425;27;20928;-66
2021/06/04 10:39:25;;;;;;;1.90;1.50;;;;;;;;;;5147523;27;20193;-65
2021/06/04 10:41:56;;;;;;;1.47;1.20;;;;;;;;;;5134846;27;20311;-65
2021/06/04 10:44:28;;;;;;;2.83;1.50;;;;;;;;;;5133620;27;20197;-64
2021/06/04 10:47:00;;;;;;;3.37;3.07;;;;;;;;;;5141427;27;20214;-65
2021/06/04 10:49:40;;;;;;;1.87;1.60;;;;;;;;;;5134912;27;20220;-64
2021/06/04 10:52:12;;;;;;;1.70;1.57;;;;;;;;;;5140959;27;20772;-64
2021/06/04 10:54:44;;;;;;;2.77;1.80;;;;;;;;;;5140843;27;20204;-70
2021/06/04 10:57:13;;;;;;;1.90;1.57;;;;;;;;;;5134740;27;20206;-64
2021/06/04 10:59:48;;;;;;;6.50;1.80;;;;;;;;;;5133656;27;20202;-66
2021/06/04 11:02:23;;;;;;;2.53;1.77;;;;;;;;;;5133353;27;20216;-66
2021/06/04 11:04:56;;;;;;;2.17;1.50;;;;;;;;;;5131303;27;20279;-66
2021/06/04 11:07:28;;;;;;;2.80;1.53;;;;;;;;;;5131498;27;20272;-64
2021/06/04 11:09:59;;;;;;;2.33;1.70;;;;;;;;;;5141248;27;20307;-66
2021/06/04 11:12:37;;;;;;;2.37;1.70;;;;;;;;;;5141011;27;20596;-66
2021/06/04 11:15:10;;;;;;;1.73;1.50;;;;;;;;;;5140839;27;20724;-67
2021/06/04 11:17:43;;;;;;;2.53;1.47;;;;;;;;;;5140673;27;20297;-67
2021/06/04 11:20:14;;;;;;;5.43;1.57;;;;;;;;;;5140739;27;20658;-67
2021/06/04 11:22:51;;;;;;;3.73;1.60;;;;;;;;;;5127974;27;20283;-66
2021/06/04 11:25:36;;;;;;;2.93;1.60;;;;;;;;;;5141725;27;20203;-66
2021/06/04 11:28:10;;;;;;;3.43;1.40;;;;;;;;;;5128223;27;20264;-67
2021/06/04 11:30:39;;;;;;;1.77;1.50;;;;;;;;;;5140283;27;20772;-66
2021/06/04 11:33:10;;;;;;;3.50;1.97;;;;;;;;;;5140892;27;20228;-66
2021/06/04 11:35:39;;;;;;;2.97;2.37;;;;;;;;;;5140699;27;20207;-67
2021/06/04 11:38:09;;;;;;;2.93;1.67;;;;;;;;;;5140499;27;20221;-67
2021/06/04 11:40:39;;;;;;;2.67;1.57;;;;;;;;;;5140745;27;20266;-67
2021/06/04 11:43:08;;;;;;;3.53;2.00;;;;;;;;;;5140312;27;20223;-66
2021/06/04 11:45:36;;;;;;;1.40;1.30;;;;;;;;;;5140547;27;20332;-66
2021/06/04 11:48:28;;;;;;;6.67;1.80;;;;;;;;;;5140161;27;20213;-65
2021/06/04 11:51:19;;;;;;;5.93;2.30;;;;;;;;;;5139367;27;20223;-68
2021/06/04 11:53:48;;;;;;;2.67;1.73;;;;;;;;;;5135756;27;20210;-67
2021/06/04 11:56:30;;;;;;;1.50;1.20;;;;;;;;;;5140314;27;20217;-66
2021/06/04 11:58:57;;;;;;;1.60;1.50;;;;;;;;;;5139605;27;20214;-66
2021/06/04 12:01:33;;;;;;;2.30;1.53;;;;;;;;;;5140292;27;20287;-67
2021/06/04 12:04:06;;;;;;;5.30;1.70;;;;;;;;;;5139797;27;20250;-66
2021/06/04 12:06:52;;;;;;;2.47;1.57;;;;;;;;;;5140121;27;20236;-67
2021/06/04 12:09:39;;;;;;;4.43;1.67;;;;;;;;;;5140086;27;20205;-66
2021/06/04 12:12:25;;;;;;;3.43;1.57;;;;;;;;;;5139434;27;20275;-66
2021/06/04 12:15:08;;;;;;;1.97;1.67;;;;;;;;;;5140090;27;20242;-68
2021/06/04 12:17:38;;;;;;;1.40;1.30;;;;;;;;;;5139256;27;20726;-68
2021/06/04 12:20:16;;;;;;;2.07;1.57;;;;;;;;;;5139933;27;20233;-68
2021/06/04 12:22:48;;;;;;;3.83;2.40;;;;;;;;;;5135799;27;20230;-67
2021/06/04 12:25:36;;;;;;;1.97;1.60;;;;;;;;;;5139923;27;20275;-67
2021/06/04 12:28:06;;;;;;;4.37;1.30;;;;;;;;;;5139560;27;20217;-67
2021/06/04 12:30:54;;;;;;;4.50;1.50;;;;;;;;;;5139113;27;20248;-66
2021/06/04 12:33:39;;;;;;;1.40;1.30;;;;;;;;;;5139109;27;20304;-67
2021/06/04 12:36:21;;;;;;;5.33;1.60;;;;;;;;;;5139398;27;20204;-66
2021/06/04 12:38:50;;;;;;;1.40;1.30;;;;;;;;;;5138616;27;20214;-66
2021/06/04 12:41:22;;;;;;;1.93;1.50;;;;;;;;;;5139359;27;20301;-66
2021/06/04 12:43:52;;;;;;;1.80;1.47;;;;;;;;;;5139135;27;20288;-67
2021/06/04 12:46:22;;;;;;;3.43;1.30;;;;;;;;;;5139553;27;20296;-65
2021/06/04 12:48:58;;;;;;;1.63;1.50;;;;;;;;;;5139263;27;20196;-67
2021/06/04 12:51:26;;;;;;;2.77;1.27;;;;;;;;;;5138698;27;20231;-65
2021/06/04 12:54:04;;;;;;;2.92;1.33;;;;;;;;;;5138924;27;20288;-66
2021/06/04 12:56:40;;;;;;;3.50;1.83;;;;;;;;;;5138894;27;20210;-67
2021/06/04 12:59:15;;;;;;;2.70;1.97;;;;;;;;;;5139341;27;20210;-66
2021/06/04 13:01:55;;;;;;;2.23;1.50;;;;;;;;;;5138905;27;20222;-66
2021/06/04 13:04:24;;;;;;;3.13;1.90;;;;;;;;;;5138446;27;20569;-67
2021/06/04 13:06:52;;;;;;;1.80;1.30;;;;;;;;;;5130200;27;20293;-63
2021/06/04 13:09:26;;;;;;;4.20;1.57;;;;;;;;;;5130899;27;20195;-63
2021/06/04 13:11:54;;;;;;;1.87;1.40;;;;;;;;;;5135314;27;20280;-63
2021/06/04 13:14:25;;;;;;;3.10;1.43;;;;;;;;;;5134501;27;20559;-63
2021/06/04 13:16:54;;;;;;;4.32;1.77;;;;;;;;;;5139086;27;20293;-64
2021/06/04 13:19:25;;;;;;;1.73;1.50;;;;;;;;;;5138739;27;20212;-64
2021/06/04 13:21:53;;;;;;;6.93;1.70;;;;;;;;;;5138762;27;20314;-64
2021/06/04 13:24:29;;;;;;;3.50;1.60;;;;;;;;;;5138449;27;20303;-64
2021/06/04 13:26:58;;;;;;;3.28;1.20;;;;;;;;;;5138622;27;20201;-63
2021/06/04 13:29:28;;;;;;;2.97;1.23;;;;;;;;;;5138097;28;20234;-64
2021/06/04 13:32:00;;;;;;;1.80;1.38;;;;;;;;;;5138484;28;20313;-64
2021/06/04 13:34:30;;;;;;;6.18;1.70;;;;;;;;;;5138030;28;20202;-63
2021/06/04 13:36:59;;;;;;;1.73;1.30;;;;;;;;;;5138050;28;20289;-63
2021/06/04 13:39:29;;;;;;;3.60;1.75;;;;;;;;;;5138053;28;20869;-63
2021/06/04 13:41:59;;;;;;;1.65;1.15;;;;;;;;;;5136220;28;20220;-64
2021/06/04 13:44:28;;;;;;;4.20;1.70;;;;;;;;;;5123624;28;20207;-64
2021/06/04 13:46:58;;;;;;;45.47;23.97;;;;;;;;;;5138625;28;20294;-64
2021/06/04 13:49:31;;;;;;;4.83;2.60;;;;;;;;;;5138691;28;20197;-63
2021/06/04 13:52:00;;;;;;;4.75;2.30;;;;;;;;;;5138337;28;20233;-63
2021/06/04 13:54:30;;;;;;;3.05;1.30;;;;;;;;;;5138917;28;20210;-63
2021/06/04 13:57:18;;;;;;;1.73;1.63;;;;;;;;;;5138545;28;20204;-64
2021/06/04 13:59:46;;;;;;;2.47;1.40;;;;;;;;;;5139876;28;20207;-63
2021/06/04 14:02:28;;;;;;;3.15;1.60;;;;;;;;;;5139538;28;20225;-64
2021/06/04 14:04:57;;;;;;;5.83;1.67;;;;;;;;;;5138482;28;20294;-64
2021/06/04 14:07:31;;;;;;;3.25;1.50;;;;;;;;;;5138102;28;20563;-62
2021/06/04 14:10:19;;;;;;;3.07;1.50;;;;;;;;;;5138248;28;20209;-63
2021/06/04 14:12:46;;;;;;;2.53;1.60;;;;;;;;;;5127189;28;20231;-63
2021/06/04 14:15:30;;;;;;;3.83;1.40;;;;;;;;;;5137680;27;20227;-63
2021/06/04 14:17:58;;;;;;;1.87;1.30;;;;;;;;;;5142345;27;20206;-63
2021/06/04 14:20:35;;;;;;;5.90;1.60;;;;;;;;;;5142129;27;20236;-64
2021/06/04 14:23:15;;;;;;;2.60;1.50;;;;;;;;;;5141603;27;20226;-64
2021/06/04 14:25:44;;;;;;;2.83;1.63;;;;;;;;;;5141836;27;20213;-62
2021/06/04 14:28:14;;;;;;;4.10;1.60;;;;;;;;;;5141707;27;20198;-64
2021/06/04 14:30:43;;;;;;;3.87;1.83;;;;;;;;;;5141437;27;20294;-62
2021/06/04 14:33:19;;;;;;;358.20;235.00;;;;;;;;;;5141432;27;20284;-64
2021/06/04 14:35:48;;;;;;;121.57;80.77;;;;;;;;;;5141506;27;20201;-62
2021/06/04 14:38:36;;;;;;;180.00;133.20;;;;;;;;;;5141474;27;20567;-62
2021/06/04 14:41:07;;;;;;;11.13;7.97;;;;;;;;;;5132293;27;20198;-64
2021/06/04 14:43:35;;;;;;;13.80;9.30;;;;;;;;;;5140600;27;20204;-62
2021/06/04 14:46:03;;;;;;;11.30;6.32;;;;;;;;;;5141670;27;20204;-63
2021/06/04 14:48:31;;;;;;;10.98;6.97;;;;;;;;;;5141852;27;20204;-63
2021/06/04 14:51:00;;;;;;;3.28;2.08;;;;;;;;;;5141987;27;20231;-65
2021/06/04 14:53:27;;;;;;;7.25;4.30;;;;;;;;;;5140664;27;20566;-64
2021/06/04 14:55:55;;;;;;;3.67;2.57;;;;;;;;;;5131295;27;20206;-63
2021/06/04 14:58:24;;;;;;;4.43;2.53;;;;;;;;;;5134960;27;20289;-64
2021/06/04 15:00:52;;;;;;;4.10;2.78;;;;;;;;;;5131967;27;20195;-63
2021/06/04 15:03:20;;;;;;;7.47;2.42;;;;;;;;;;5133340;27;20212;-63
2021/06/04 15:05:48;;;;;;;5.05;3.08;;;;;;;;;;5137362;27;20213;-64
2021/06/04 15:08:17;;;;;;;5.63;3.53;;;;;;;;;;5133325;27;20200;-63
2021/06/04 15:10:46;;;;;;;9.50;3.42;;;;;;;;;;5132550;27;20217;-63
2021/06/04 15:13:17;;;;;;;4.68;3.15;;;;;;;;;;5134717;27;20717;-63
2021/06/04 15:15:46;;;;;;;4.00;1.92;;;;;;;;;;5132443;27;20196;-63
2021/06/04 15:18:14;;;;;;;5.63;2.63;;;;;;;;;;5128562;27;20611;-63
2021/06/04 15:20:41;;;;;;;2.92;2.25;;;;;;;;;;5139370;27;20203;-63
2021/06/04 15:23:09;;;;;;;4.50;2.33;;;;;;;;;;5140011;27;20304;-62
2021/06/04 15:25:37;;;;;;;4.13;2.03;;;;;;;;;;5140048;27;20688;-62
2021/06/04 15:28:06;;;;;;;4.45;1.95;;;;;;;;;;5139906;27;20208;-63
2021/06/04 15:30:34;;;;;;;8.17;1.77;;;;;;;;;;5126136;27;20254;-62
2021/06/04 15:33:03;;;;;;;3.43;1.53;;;;;;;;;;5139819;27;20218;-62
2021/06/04 15:35:31;;;;;;;6.13;2.37;;;;;;;;;;5140208;27;20204;-63
2021/06/04 15:37:59;;;;;;;2.67;2.07;;;;;;;;;;5139692;27;20649;-63
2021/06/04 15:40:28;;;;;;;4.70;1.63;;;;;;;;;;5140007;27;20211;-64
2021/06/04 15:42:55;;;;;;;3.30;2.00;;;;;;;;;;5136473;27;20763;-63
2021/06/04 15:45:24;;;;;;;3.53;1.57;;;;;;;;;;5140355;27;20209;-64
2021/06/04 15:47:54;;;;;;;2.80;1.80;;;;;;;;;;5140281;27;20214;-63
2021/06/04 15:50:23;;;;;;;4.80;1.80;;;;;;;;;;5133573;27;20712;-64
2021/06/04 15:52:51;;;;;;;3.07;1.97;;;;;;;;;;5135683;27;20238;-64
2021/06/04 15:55:18;;;;;;;2.20;1.30;;;;;;;;;;5140192;27;20285;-64
2021/06/04 15:57:46;;;;;;;5.90;2.13;;;;;;;;;;5140040;27;20209;-64
2021/06/04 16:00:15;;;;;;;3.90;1.40;;;;;;;;;;5140011;27;20220;-63
2021/06/04 16:02:42;;;;;;;4.03;1.70;;;;;;;;;;5139229;27;20229;-64
2021/06/04 16:05:11;;;;;;;2.00;1.73;;;;;;;;;;5139438;27;20205;-64
2021/06/04 16:07:40;;;;;;;1.90;1.33;;;;;;;;;;5139074;27;20273;-63
2021/06/04 16:10:09;;;;;;;6.30;1.60;;;;;;;;;;5139540;27;20207;-64
2021/06/04 16:12:36;;;;;;;6.93;1.83;;;;;;;;;;5131057;27;20228;-64
2021/06/04 16:15:05;;;;;;;3.63;2.00;;;;;;;;;;5139371;27;20207;-64
2021/06/04 16:17:32;;;;;;;4.87;1.80;;;;;;;;;;5139220;27;20209;-64
2021/06/04 16:20:00;;;;;;;4.80;2.13;;;;;;;;;;5139342;27;20204;-64
2021/06/04 16:22:31;;;;;;;8.20;1.80;;;;;;;;;;5138793;27;20619;-65
2021/06/04 16:25:01;;;;;;;3.80;1.77;;;;;;;;;;5139460;27;20204;-65
2021/06/04 16:27:29;;;;;;;3.10;1.83;;;;;;;;;;5138863;27;20656;-66
2021/06/04 16:29:56;;;;;;;3.93;1.67;;;;;;;;;;5135384;27;20236;-66
2021/06/04 16:32:24;;;;;;;4.70;1.60;;;;;;;;;;5139008;27;20243;-66
2021/06/04 16:34:51;;;;;;;2.50;1.70;;;;;;;;;;5139249;27;20197;-66
2021/06/04 16:37:21;;;;;;;4.63;1.70;;;;;;;;;;5138874;27;20200;-66
2021/06/04 16:39:49;;;;;;;2.53;2.20;;;;;;;;;;5138375;27;20209;-65
2021/06/04 16:42:18;;;;;;;5.97;2.20;;;;;;;;;;5138290;27;20217;-65
2021/06/04 16:44:46;;;;;;;7.00;2.30;;;;;;;;;;5138422;27;20283;-65
2021/06/04 16:47:13;;;;;;;3.20;2.00;;;;;;;;;;5138413;27;20568;-65
2021/06/04 16:49:41;;;;;;;6.93;1.67;;;;;;;;;;5138441;27;20261;-65
2021/06/04 16:52:10;;;;;;;6.00;2.10;;;;;;;;;;5136822;27;20225;-65
2021/06/04 16:54:38;;;;;;;6.33;2.10;;;;;;;;;;5134174;27;20566;-66
2021/06/04 16:57:05;;;;;;;3.90;1.60;;;;;;;;;;5131237;27;20208;-66
2021/06/04 16:59:34;;;;;;;3.60;1.77;;;;;;;;;;5138274;27;20210;-65
2021/06/04 17:02:02;;;;;;;4.03;1.87;;;;;;;;;;5138185;27;20222;-65
2021/06/04 17:04:30;;;;;;;3.23;2.13;;;;;;;;;;5138592;27;20200;-65
2021/06/04 17:06:57;;;;;;;2.63;1.70;;;;;;;;;;5138451;27;20219;-65
2021/06/04 17:09:24;;;;;;;5.00;1.90;;;;;;;;;;5138559;27;20198;-65
2021/06/04 17:11:52;;;;;;;1.90;1.37;;;;;;;;;;5136794;27;20233;-65
2021/06/04 17:14:20;;;;;;;3.73;1.73;;;;;;;;;;5139417;27;20202;-65
2021/06/04 17:16:49;;;;;;;2.83;2.33;;;;;;;;;;5138773;27;20208;-65
2021/06/04 17:19:16;;;;;;;6.67;2.27;;;;;;;;;;5138518;27;20272;-65
2021/06/04 17:21:45;;;;;;;5.03;2.03;;;;;;;;;;5137927;27;20221;-65
2021/06/04 17:24:13;;;;;;;3.40;1.90;;;;;;;;;;5138585;27;20217;-65
2021/06/04 17:26:41;;;;;;;5.03;1.77;;;;;;;;;;5138984;27;20293;-66
2021/06/04 17:29:09;;;;;;;3.73;2.10;;;;;;;;;;5138761;28;20598;-65
2021/06/04 17:31:36;;;;;;;10.80;2.37;;;;;;;;;;5138274;28;20247;-66
2021/06/04 17:34:05;;;;;;;4.30;1.90;;;;;;;;;;5138001;28;20210;-66
2021/06/04 17:36:33;;;;;;;4.53;2.30;;;;;;;;;;5137551;28;20210;-66
2021/06/04 17:39:01;;;;;;;2.10;1.90;;;;;;;;;;5135426;28;20200;-66
2021/06/04 17:41:29;;;;;;;3.13;2.13;;;;;;;;;;5127051;28;20693;-66
2021/06/04 17:43:56;;;;;;;6.30;2.03;;;;;;;;;;5137771;28;20282;-66
2021/06/04 17:46:24;;;;;;;4.43;2.10;;;;;;;;;;5138142;28;20202;-66
2021/06/04 17:48:53;;;;;;;2.80;2.10;;;;;;;;;;5137839;28;20211;-66
2021/06/04 17:51:22;;;;;;;5.97;1.87;;;;;;;;;;5139411;27;20228;-66
2021/06/04 17:53:49;;;;;;;3.63;1.60;;;;;;;;;;5142048;27;20207;-66
2021/06/04 17:56:17;;;;;;;3.93;1.93;;;;;;;;;;5142387;27;20679;-66
2021/06/04 17:58:46;;;;;;;4.93;1.83;;;;;;;;;;5142531;27;20211;-66
2021/06/04 18:01:13;;;;;;;5.37;2.57;;;;;;;;;;5142508;27;20321;-66
2021/06/04 18:03:41;;;;;;;3.03;2.13;;;;;;;;;;5142223;27;20204;-66
2021/06/04 18:06:09;;;;;;;2.67;1.90;;;;;;;;;;5142454;27;20294;-66
2021/06/04 18:08:39;;;;;;;3.67;1.97;;;;;;;;;;5142026;27;20554;-66
2021/06/04 18:11:08;;;;;;;4.30;2.03;;;;;;;;;;5141963;27;20215;-66
2021/06/04 18:13:37;;;;;;;4.00;2.00;;;;;;;;;;5130621;27;20221;-65
2021/06/04 18:16:07;;;;;;;4.53;2.50;;;;;;;;;;5142201;27;20218;-66
2021/06/04 18:18:35;;;;;;;4.33;2.10;;;;;;;;;;5142261;27;20208;-66
2021/06/04 18:21:04;;;;;;;3.93;1.53;;;;;;;;;;5142191;27;20208;-66
2021/06/04 18:23:32;;;;;;;3.53;1.90;;;;;;;;;;5141734;27;20204;-66
2021/06/04 18:26:01;;;;;;;3.40;2.00;;;;;;;;;;5141727;27;20208;-66
2021/06/04 18:28:29;;;;;;;6.10;2.53;;;;;;;;;;5141289;27;20547;-66
2021/06/04 18:30:57;;;;;;;2.50;1.80;;;;;;;;;;5141702;27;20208;-65
2021/06/04 18:33:25;;;;;;;2.50;1.80;;;;;;;;;;5141178;27;20713;-66
2021/06/04 18:35:53;;;;;;;3.30;1.80;;;;;;;;;;5141791;27;20208;-66
2021/06/04 18:38:21;;;;;;;5.30;2.07;;;;;;;;;;5141500;27;20206;-66
2021/06/04 18:40:50;;;;;;;2.10;1.90;;;;;;;;;;5141759;27;20196;-66
2021/06/04 18:43:20;;;;;;;1.90;1.70;;;;;;;;;;5141728;27;20210;-66
2021/06/04 18:45:47;;;;;;;2.57;1.60;;;;;;;;;;5141709;27;20204;-66
2021/06/04 18:48:15;;;;;;;4.40;1.50;;;;;;;;;;5141326;27;20211;-66
2021/06/04 18:50:43;;;;;;;2.93;1.90;;;;;;;;;;5140957;27;20207;-66
2021/06/04 18:53:11;;;;;;;1.97;1.40;;;;;;;;;;5140851;27;20231;-66
2021/06/04 18:55:40;;;;;;;2.77;1.47;;;;;;;;;;5140632;27;20211;-66
2021/06/04 18:58:08;;;;;;;1.73;1.50;;;;;;;;;;5140906;27;20260;-66
2021/06/04 19:00:39;;;;;;;3.57;1.50;;;;;;;;;;5140521;27;20210;-66
2021/06/04 19:03:07;;;;;;;1.37;1.27;;;;;;;;;;5126905;27;20229;-66
2021/06/04 19:05:35;;;;;;;1.47;1.37;;;;;;;;;;5140594;27;20795;-66
2021/06/04 19:08:03;;;;;;;2.57;1.40;;;;;;;;;;5140723;27;20210;-66
2021/06/04 19:10:32;;;;;;;1.67;1.57;;;;;;;;;;5140982;27;20238;-66
2021/06/04 19:13:00;;;;;;;1.83;1.53;;;;;;;;;;5140858;27;20228;-66
2021/06/04 19:15:28;;;;;;;2.10;1.27;;;;;;;;;;5141160;27;20270;-66
2021/06/04 19:17:57;;;;;;;1.80;1.70;;;;;;;;;;5141451;27;20209;-66
2021/06/04 19:20:25;;;;;;;1.93;1.63;;;;;;;;;;5141218;27;20218;-66
2021/06/04 19:22:53;;;;;;;3.53;1.40;;;;;;;;;;5141083;27;20315;-65
2021/06/04 19:25:23;;;;;;;3.10;1.87;;;;;;;;;;5141073;27;20206;-64
2021/06/04 19:27:51;;;;;;;2.27;1.40;;;;;;;;;;5140827;27;20266;-65
2021/06/04 19:30:19;;;;;;;1.70;1.47;;;;;;;;;;5140331;27;20235;-64
2021/06/04 19:32:47;;;;;;;1.57;1.30;;;;;;;;;;5140628;27;20227;-67
2021/06/04 19:35:16;;;;;;;2.07;1.47;;;;;;;;;;5140741;27;20287;-64
2021/06/04 19:37:44;;;;;;;1.40;1.27;;;;;;;;;;5140247;27;20203;-64
2021/06/04 19:40:12;;;;;;;1.30;1.20;;;;;;;;;;5140892;27;20202;-64
2021/06/04 19:42:39;;;;;;;1.87;1.50;;;;;;;;;;5140716;27;20230;-64
2021/06/04 19:45:08;;;;;;;1.40;1.30;;;;;;;;;;5140637;27;20211;-64
2021/06/04 19:47:35;;;;;;;3.40;1.60;;;;;;;;;;5140632;27;20206;-64
2021/06/04 19:50:06;;;;;;;3.20;1.40;;;;;;;;;;5140520;27;20208;-64
2021/06/04 19:52:39;;;;;;;2.83;1.20;;;;;;;;;;5139982;27;20242;-66
2021/06/04 19:55:07;;;;;;;2.23;1.27;;;;;;;;;;5140178;27;20575;-65
2021/06/04 19:57:35;;;;;;;1.30;1.20;;;;;;;;;;5140429;27;20208;-65
2021/06/04 20:00:04;;;;;;;2.20;1.20;;;;;;;;;;5140369;27;20292;-65
2021/06/04 20:02:31;;;;;;;1.40;1.30;;;;;;;;;;5139262;27;20223;-63
2021/06/04 20:04:59;;;;;;;3.23;1.23;;;;;;;;;;5139573;27;20212;-65
2021/06/04 20:07:26;;;;;;;1.37;1.27;;;;;;;;;;5139099;27;20208;-65
2021/06/04 20:09:55;;;;;;;2.93;1.30;;;;;;;;;;5139539;27;20207;-64
2021/06/04 20:12:23;;;;;;;4.33;1.37;;;;;;;;;;5132990;27;20263;-64
2021/06/04 20:14:50;;;;;;;3.53;1.30;;;;;;;;;;5138764;27;20206;-64
2021/06/04 20:17:18;;;;;;;2.60;1.50;;;;;;;;;;5139851;27;20210;-64
2021/06/04 20:19:47;;;;;;;1.30;1.20;;;;;;;;;;5139481;27;20205;-64
2021/06/04 20:22:16;;;;;;;2.17;1.80;;;;;;;;;;5139232;27;20236;-65
2021/06/04 20:24:44;;;;;;;1.83;1.23;;;;;;;;;;5139750;27;20215;-63
2021/06/04 20:27:13;;;;;;;1.40;1.10;;;;;;;;;;5139548;27;20217;-65
2021/06/04 20:29:40;;;;;;;5.10;1.30;;;;;;;;;;5139204;27;20233;-65
2021/06/04 20:32:09;;;;;;;1.80;1.30;;;;;;;;;;5138996;27;20231;-65
2021/06/04 20:34:37;;;;;;;2.53;1.20;;;;;;;;;;5138999;27;20211;-65
2021/06/04 20:37:04;;;;;;;2.40;1.03;;;;;;;;;;5138946;27;20287;-65
2021/06/04 20:39:33;;;;;;;1.77;1.30;;;;;;;;;;5139266;27;20196;-65
2021/06/04 20:42:01;;;;;;;1.23;1.13;;;;;;;;;;5138300;27;20220;-63
2021/06/04 20:44:30;;;;;;;2.20;1.03;;;;;;;;;;5138871;27;20211;-65
2021/06/04 20:46:58;;;;;;;2.50;1.20;;;;;;;;;;5124314;27;20216;-64
2021/06/04 20:49:25;;;;;;;2.00;1.00;;;;;;;;;;5139162;27;20563;-64
2021/06/04 20:51:53;;;;;;;1.60;1.50;;;;;;;;;;5139142;27;20227;-64
2021/06/04 20:54:20;;;;;;;2.10;1.40;;;;;;;;;;5139330;27;20228;-64
2021/06/04 20:56:50;;;;;;;3.10;1.50;;;;;;;;;;5139096;27;20206;-65
2021/06/04 20:59:17;;;;;;;2.73;1.80;;;;;;;;;;5138987;27;20209;-63
2021/06/04 21:01:47;;;;;;;1.57;1.40;;;;;;;;;;5139046;27;20230;-64
2021/06/04 21:04:14;;;;;;;1.90;1.70;;;;;;;;;;5138948;27;20196;-64
2021/06/04 21:06:42;;;;;;;1.60;1.50;;;;;;;;;;5138947;27;20564;-64
2021/06/04 21:09:10;;;;;;;1.70;1.60;;;;;;;;;;5139026;27;20217;-64
2021/06/04 21:11:39;;;;;;;1.40;1.30;;;;;;;;;;5137774;27;20223;-63
2021/06/04 21:14:07;;;;;;;2.73;1.47;;;;;;;;;;5137235;27;20223;-63
2021/06/04 21:16:35;;;;;;;1.60;1.50;;;;;;;;;;5139504;27;20203;-63
2021/06/04 21:19:04;;;;;;;5.03;1.90;;;;;;;;;;5138992;27;20211;-64
2021/06/04 21:21:32;;;;;;;1.83;1.23;;;;;;;;;;5138771;27;20224;-64
2021/06/04 21:23:59;;;;;;;2.00;1.43;;;;;;;;;;5137987;27;20279;-64
2021/06/04 21:26:27;;;;;;;1.40;1.30;;;;;;;;;;5138593;27;20199;-64
2021/06/04 21:28:55;;;;;;;2.27;1.60;;;;;;;;;;5138283;27;20265;-64
2021/06/04 21:31:23;;;;;;;2.60;1.50;;;;;;;;;;5138384;28;20223;-64
2021/06/04 21:33:53;;;;;;;4.07;1.63;;;;;;;;;;5138519;28;20235;-65
2021/06/04 21:36:23;;;;;;;2.60;1.40;;;;;;;;;;5137947;28;20204;-63
2021/06/04 21:38:51;;;;;;;1.50;1.40;;;;;;;;;;5138325;28;20207;-64
2021/06/04 21:41:19;;;;;;;1.40;1.30;;;;;;;;;;5136552;28;20318;-64
2021/06/04 21:43:47;;;;;;;2.27;1.57;;;;;;;;;;5128847;28;20204;-64
2021/06/04 21:46:17;;;;;;;2.77;1.40;;;;;;;;;;5136499;28;20213;-63
2021/06/04 21:48:44;;;;;;;2.30;1.30;;;;;;;;;;5137978;28;20209;-64
2021/06/04 21:51:13;;;;;;;1.40;1.30;;;;;;;;;;5138158;28;20234;-63
2021/06/04 21:53:47;;;;;;;2.40;1.50;;;;;;;;;;5138403;28;20570;-64
2021/06/04 21:56:15;;;;;;;2.70;1.50;;;;;;;;;;5125979;28;20208;-64
2021/06/04 21:58:43;;;;;;;1.90;1.80;;;;;;;;;;5138269;28;20208;-65
2021/06/04 22:01:11;;;;;;;1.30;1.20;;;;;;;;;;5138545;28;20221;-64
2021/06/04 22:03:40;;;;;;;2.63;1.20;;;;;;;;;;5138180;28;20213;-64
2021/06/04 22:06:09;;;;;;;1.10;1.00;;;;;;;;;;5132222;28;20200;-64
2021/06/04 22:08:37;;;;;;;2.07;1.33;;;;;;;;;;5134523;28;20212;-64
2021/06/04 22:11:07;;;;;;;4.40;1.27;;;;;;;;;;5138820;28;20211;-64
2021/06/04 22:13:35;;;;;;;2.70;1.27;;;;;;;;;;5137901;28;20234;-64
2021/06/04 22:16:03;;;;;;;3.33;0.90;;;;;;;;;;5138681;28;20207;-63
2021/06/04 22:18:30;;;;;;;1.90;1.00;;;;;;;;;;5138512;28;20218;-64
2021/06/04 22:20:58;;;;;;;1.67;1.03;;;;;;;;;;5138204;28;20216;-64
2021/06/04 22:23:27;;;;;;;1.47;0.80;;;;;;;;;;5138415;28;20203;-64
2021/06/04 22:25:55;;;;;;;1.87;0.90;;;;;;;;;;5138396;28;20206;-64
2021/06/04 22:28:25;;;;;;;0.87;0.87;;;;;;;;;;5138149;28;20210;-66
2021/06/04 22:30:53;;;;;;;0.80;0.80;;;;;;;;;;5137892;28;20642;-64
2021/06/04 22:33:27;;;;;;;1.27;0.90;;;;;;;;;;5138078;28;20301;-64
2021/06/04 22:35:55;;;;;;;1.20;0.87;;;;;;;;;;5138238;27;20211;-65
2021/06/04 22:38:22;;;;;;;1.33;0.70;;;;;;;;;;5141475;27;20216;-65
2021/06/04 22:40:50;;;;;;;1.90;1.20;;;;;;;;;;5142092;27;20207;-64
2021/06/04 22:43:17;;;;;;;1.87;1.10;;;;;;;;;;5141992;27;20197;-64
2021/06/04 22:45:46;;;;;;;2.27;0.87;;;;;;;;;;5141783;27;20570;-65
2021/06/04 22:48:14;;;;;;;1.10;1.00;;;;;;;;;;5141935;27;20201;-63
2021/06/04 22:50:41;;;;;;;0.83;0.63;;;;;;;;;;5141680;27;20568;-63
2021/06/04 22:53:10;;;;;;;0.90;0.90;;;;;;;;;;5141146;27;20232;-64
2021/06/04 22:55:39;;;;;;;0.60;0.60;;;;;;;;;;5141354;27;20342;-64
2021/06/04 22:58:07;;;;;;;0.80;0.80;;;;;;;;;;5141403;27;20211;-63
2021/06/04 23:00:36;;;;;;;1.30;0.80;;;;;;;;;;5141429;27;20207;-64
2021/06/04 23:03:05;;;;;;;0.63;0.60;;;;;;;;;;5141138;27;20711;-64
2021/06/04 23:05:34;;;;;;;0.60;0.60;;;;;;;;;;5140959;27;20343;-64
2021/06/04 23:08:02;;;;;;;0.47;0.40;;;;;;;;;;5140713;27;20544;-64
2021/06/04 23:10:30;;;;;;;0.70;0.70;;;;;;;;;;5141329;27;20209;-63
2021/06/04 23:12:57;;;;;;;0.70;0.70;;;;;;;;;;5133086;27;20221;-64
2021/06/04 23:15:26;;;;;;;1.10;0.80;;;;;;;;;;5141447;27;20269;-65
2021/06/04 23:17:54;;;;;;;0.60;0.60;;;;;;;;;;5141031;27;20261;-64
2021/06/04 23:20:24;;;;;;;0.80;0.80;;;;;;;;;;5141063;27;20549;-64
2021/06/04 23:22:52;;;;;;;0.70;0.70;;;;;;;;;;5140629;27;20234;-64
2021/06/04 23:25:23;;;;;;;3.30;0.67;;;;;;;;;;5141239;27;20196;-64
2021/06/04 23:27:51;;;;;;;1.30;0.50;;;;;;;;;;5141185;27;20209;-64
2021/06/04 23:30:19;;;;;;;1.87;0.60;;;;;;;;;;5140724;27;20244;-64
2021/06/04 23:32:47;;;;;;;0.57;0.57;;;;;;;;;;5141029;27;20317;-64
2021/06/04 23:35:15;;;;;;;0.50;0.50;;;;;;;;;;5140596;27;20229;-64
2021/06/04 23:37:44;;;;;;;0.50;0.50;;;;;;;;;;5140249;27;20676;-64
2021/06/04 23:40:12;;;;;;;1.73;0.70;;;;;;;;;;5140603;27;20206;-64
2021/06/04 23:42:40;;;;;;;3.10;0.60;;;;;;;;;;5140150;27;20216;-64
2021/06/04 23:45:09;;;;;;;0.43;0.43;;;;;;;;;;5140133;27;20196;-64
2021/06/04 23:47:37;;;;;;;3.23;0.70;;;;;;;;;;5140223;27;20204;-66
2021/06/04 23:50:06;;;;;;;0.70;0.60;;;;;;;;;;5140098;27;20291;-65
2021/06/04 23:52:34;;;;;;;0.77;0.50;;;;;;;;;;5139733;27;20240;-65
2021/06/04 23:55:05;;;;;;;1.53;0.70;;;;;;;;;;5139834;27;20239;-65
2021/06/04 23:57:33;;;;;;;0.97;0.70;;;;;;;;;;5140261;27;20214;-65
